sensor_id;sensor_type;location;lat;lon;timestamp;temperature;humidity
15099;DHT22;33900;53.640;9.942;2022-08-21T00:01:42;19.10;76.30
15099;DHT22;33900;53.640;9.942;2022-08-21T00:04:09;19.10;76.40
15099;DHT22;33900;53.640;9.942;2022-08-21T00:06:35;19.10;76.50
15099;DHT22;33900;53.640;9.942;2022-08-21T00:09:02;19.10;76.70
15099;DHT22;33900;53.640;9.942;2022-08-21T00:11:28;19.10;76.80
15099;DHT22;33900;53.640;9.942;2022-08-21T00:13:54;19.00;76.80
15099;DHT22;33900;53.640;9.942;2022-08-21T00:16:19;19.00;77.00
15099;DHT22;33900;53.640;9.942;2022-08-21T00:18:45;19.00;77.10
15099;DHT22;33900;53.640;9.942;2022-08-21T00:21:14;19.00;77.30
15099;DHT22;33900;53.640;9.942;2022-08-21T00:23:40;19.00;77.40
15099;DHT22;33900;53.640;9.942;2022-08-21T00:26:05;19.00;77.40
15099;DHT22;33900;53.640;9.942;2022-08-21T00:28:31;18.90;77.40
15099;DHT22;33900;53.640;9.942;2022-08-21T00:30:57;18.90;77.40
15099;DHT22;33900;53.640;9.942;2022-08-21T00:33:24;18.90;77.50
15099;DHT22;33900;53.640;9.942;2022-08-21T00:35:49;18.90;77.70
15099;DHT22;33900;53.640;9.942;2022-08-21T00:38:15;18.90;77.70
15099;DHT22;33900;53.640;9.942;2022-08-21T00:40:44;18.80;77.70
15099;DHT22;33900;53.640;9.942;2022-08-21T00:43:10;18.80;77.80
15099;DHT22;33900;53.640;9.942;2022-08-21T00:45:36;18.80;77.80
15099;DHT22;33900;53.640;9.942;2022-08-21T00:48:02;18.80;77.90
15099;DHT22;33900;53.640;9.942;2022-08-21T00:50:28;18.80;77.90
15099;DHT22;33900;53.640;9.942;2022-08-21T00:52:56;18.80;78.10
15099;DHT22;33900;53.640;9.942;2022-08-21T00:55:22;18.70;78.10
15099;DHT22;33900;53.640;9.942;2022-08-21T00:57:49;18.80;78.20
15099;DHT22;33900;53.640;9.942;2022-08-21T01:00:17;18.70;78.20
15099;DHT22;33900;53.640;9.942;2022-08-21T01:02:43;18.70;78.40
15099;DHT22;33900;53.640;9.942;2022-08-21T01:05:09;18.70;78.40
15099;DHT22;33900;53.640;9.942;2022-08-21T01:07:34;18.80;78.60
15099;DHT22;33900;53.640;9.942;2022-08-21T01:10:00;18.70;78.60
15099;DHT22;33900;53.640;9.942;2022-08-21T01:12:26;18.70;78.70
15099;DHT22;33900;53.640;9.942;2022-08-21T01:14:51;18.60;78.70
15099;DHT22;33900;53.640;9.942;2022-08-21T01:17:17;18.60;78.70
15099;DHT22;33900;53.640;9.942;2022-08-21T01:19:44;18.60;78.80
15099;DHT22;33900;53.640;9.942;2022-08-21T01:22:09;18.50;78.80
15099;DHT22;33900;53.640;9.942;2022-08-21T01:24:35;18.50;79.00
15099;DHT22;33900;53.640;9.942;2022-08-21T01:27:01;18.50;79.00
15099;DHT22;33900;53.640;9.942;2022-08-21T01:29:36;18.50;79.10
15099;DHT22;33900;53.640;9.942;2022-08-21T01:32:04;18.50;79.20
15099;DHT22;33900;53.640;9.942;2022-08-21T01:34:31;18.50;79.30
15099;DHT22;33900;53.640;9.942;2022-08-21T01:36:57;18.50;79.20
15099;DHT22;33900;53.640;9.942;2022-08-21T01:39:23;18.50;79.30
15099;DHT22;33900;53.640;9.942;2022-08-21T01:41:48;18.40;79.30
15099;DHT22;33900;53.640;9.942;2022-08-21T01:44:14;18.40;79.30
15099;DHT22;33900;53.640;9.942;2022-08-21T01:46:39;18.40;79.40
15099;DHT22;33900;53.640;9.942;2022-08-21T01:49:05;18.40;79.40
15099;DHT22;33900;53.640;9.942;2022-08-21T01:51:31;18.30;79.40
15099;DHT22;33900;53.640;9.942;2022-08-21T01:53:56;18.40;79.50
15099;DHT22;33900;53.640;9.942;2022-08-21T01:56:22;18.40;79.50
15099;DHT22;33900;53.640;9.942;2022-08-21T01:58:48;18.30;79.50
15099;DHT22;33900;53.640;9.942;2022-08-21T02:01:14;18.30;79.50
15099;DHT22;33900;53.640;9.942;2022-08-21T02:03:40;18.30;79.60
15099;DHT22;33900;53.640;9.942;2022-08-21T02:06:07;18.30;79.60
15099;DHT22;33900;53.640;9.942;2022-08-21T02:08:32;18.30;79.70
15099;DHT22;33900;53.640;9.942;2022-08-21T02:10:58;18.30;79.70
15099;DHT22;33900;53.640;9.942;2022-08-21T02:13:24;18.30;79.60
15099;DHT22;33900;53.640;9.942;2022-08-21T02:15:49;18.30;79.60
15099;DHT22;33900;53.640;9.942;2022-08-21T02:18:15;18.30;79.70
15099;DHT22;33900;53.640;9.942;2022-08-21T02:20:42;18.20;79.60
15099;DHT22;33900;53.640;9.942;2022-08-21T02:26:37;18.20;79.80
15099;DHT22;33900;53.640;9.942;2022-08-21T02:29:03;18.10;79.80
15099;DHT22;33900;53.640;9.942;2022-08-21T02:31:28;18.10;80.20
15099;DHT22;33900;53.640;9.942;2022-08-21T02:33:54;18.10;80.00
15099;DHT22;33900;53.640;9.942;2022-08-21T02:36:20;18.10;80.10
15099;DHT22;33900;53.640;9.942;2022-08-21T02:38:46;18.10;80.20
15099;DHT22;33900;53.640;9.942;2022-08-21T02:41:15;18.10;80.20
15099;DHT22;33900;53.640;9.942;2022-08-21T02:43:42;18.10;80.20
15099;DHT22;33900;53.640;9.942;2022-08-21T02:46:08;18.10;80.20
15099;DHT22;33900;53.640;9.942;2022-08-21T02:48:34;18.00;80.20
15099;DHT22;33900;53.640;9.942;2022-08-21T02:51:05;18.00;80.20
15099;DHT22;33900;53.640;9.942;2022-08-21T02:53:31;18.00;80.30
15099;DHT22;33900;53.640;9.942;2022-08-21T02:55:58;18.00;80.40
15099;DHT22;33900;53.640;9.942;2022-08-21T02:58:25;18.00;80.60
15099;DHT22;33900;53.640;9.942;2022-08-21T03:00:51;18.00;80.60
15099;DHT22;33900;53.640;9.942;2022-08-21T03:03:17;18.00;80.70
15099;DHT22;33900;53.640;9.942;2022-08-21T03:05:43;18.00;80.80
15099;DHT22;33900;53.640;9.942;2022-08-21T03:08:10;17.90;80.80
15099;DHT22;33900;53.640;9.942;2022-08-21T03:10:37;17.90;80.80
15099;DHT22;33900;53.640;9.942;2022-08-21T03:13:02;18.10;81.00
15099;DHT22;33900;53.640;9.942;2022-08-21T03:15:28;17.90;80.90
15099;DHT22;33900;53.640;9.942;2022-08-21T03:17:54;17.90;80.80
15099;DHT22;33900;53.640;9.942;2022-08-21T03:20:20;17.90;80.90
15099;DHT22;33900;53.640;9.942;2022-08-21T03:22:49;17.90;81.00
15099;DHT22;33900;53.640;9.942;2022-08-21T03:25:15;17.90;81.00
15099;DHT22;33900;53.640;9.942;2022-08-21T03:27:41;17.90;81.00
15099;DHT22;33900;53.640;9.942;2022-08-21T03:30:07;17.80;81.00
15099;DHT22;33900;53.640;9.942;2022-08-21T03:32:33;17.80;81.00
15099;DHT22;33900;53.640;9.942;2022-08-21T03:34:58;17.80;81.00
15099;DHT22;33900;53.640;9.942;2022-08-21T03:37:25;17.80;81.10
15099;DHT22;33900;53.640;9.942;2022-08-21T03:39:51;17.80;81.10
15099;DHT22;33900;53.640;9.942;2022-08-21T03:42:16;17.70;81.00
15099;DHT22;33900;53.640;9.942;2022-08-21T03:44:42;17.70;81.10
15099;DHT22;33900;53.640;9.942;2022-08-21T03:47:07;17.70;81.10
15099;DHT22;33900;53.640;9.942;2022-08-21T03:49:33;17.70;82.00
15099;DHT22;33900;53.640;9.942;2022-08-21T03:51:59;17.70;81.30
15099;DHT22;33900;53.640;9.942;2022-08-21T03:54:24;17.70;81.30
15099;DHT22;33900;53.640;9.942;2022-08-21T03:56:56;17.70;81.40
15099;DHT22;33900;53.640;9.942;2022-08-21T03:59:21;17.60;82.20
15099;DHT22;33900;53.640;9.942;2022-08-21T04:01:51;17.60;81.50
15099;DHT22;33900;53.640;9.942;2022-08-21T04:04:17;17.60;81.50
15099;DHT22;33900;53.640;9.942;2022-08-21T04:06:42;17.60;81.50
15099;DHT22;33900;53.640;9.942;2022-08-21T04:09:08;17.60;81.50
15099;DHT22;33900;53.640;9.942;2022-08-21T04:11:52;17.60;81.50
15099;DHT22;33900;53.640;9.942;2022-08-21T04:14:35;17.60;82.40
15099;DHT22;33900;53.640;9.942;2022-08-21T04:17:01;17.60;81.70
15099;DHT22;33900;53.640;9.942;2022-08-21T04:19:27;17.60;81.70
15099;DHT22;33900;53.640;9.942;2022-08-21T04:21:52;17.50;81.80
15099;DHT22;33900;53.640;9.942;2022-08-21T04:24:20;17.60;81.90
15099;DHT22;33900;53.640;9.942;2022-08-21T04:26:52;17.60;81.90
15099;DHT22;33900;53.640;9.942;2022-08-21T04:29:17;17.60;81.90
15099;DHT22;33900;53.640;9.942;2022-08-21T04:31:50;17.70;81.80
15099;DHT22;33900;53.640;9.942;2022-08-21T04:34:17;17.70;81.80
15099;DHT22;33900;53.640;9.942;2022-08-21T04:36:43;17.70;81.80
15099;DHT22;33900;53.640;9.942;2022-08-21T04:39:08;17.70;81.80
15099;DHT22;33900;53.640;9.942;2022-08-21T04:41:34;17.80;81.90
15099;DHT22;33900;53.640;9.942;2022-08-21T04:44:01;17.80;82.00
15099;DHT22;33900;53.640;9.942;2022-08-21T04:46:26;17.80;81.80
15099;DHT22;33900;53.640;9.942;2022-08-21T04:48:52;17.90;81.80
15099;DHT22;33900;53.640;9.942;2022-08-21T04:51:36;17.90;81.80
15099;DHT22;33900;53.640;9.942;2022-08-21T04:54:09;17.90;81.70
15099;DHT22;33900;53.640;9.942;2022-08-21T04:56:42;17.90;81.60
15099;DHT22;33900;53.640;9.942;2022-08-21T04:59:15;17.90;81.70
15099;DHT22;33900;53.640;9.942;2022-08-21T05:01:42;17.90;81.70
15099;DHT22;33900;53.640;9.942;2022-08-21T05:04:08;17.90;81.70
15099;DHT22;33900;53.640;9.942;2022-08-21T05:06:35;17.90;81.60
15099;DHT22;33900;53.640;9.942;2022-08-21T05:09:02;17.90;81.70
15099;DHT22;33900;53.640;9.942;2022-08-21T05:11:29;17.90;81.80
15099;DHT22;33900;53.640;9.942;2022-08-21T05:13:55;18.00;81.90
15099;DHT22;33900;53.640;9.942;2022-08-21T05:16:21;18.00;81.80
15099;DHT22;33900;53.640;9.942;2022-08-21T05:18:46;18.00;81.80
15099;DHT22;33900;53.640;9.942;2022-08-21T05:21:12;18.00;81.80
15099;DHT22;33900;53.640;9.942;2022-08-21T05:23:37;18.10;82.00
15099;DHT22;33900;53.640;9.942;2022-08-21T05:26:03;18.10;82.00
15099;DHT22;33900;53.640;9.942;2022-08-21T05:28:30;18.10;82.00
15099;DHT22;33900;53.640;9.942;2022-08-21T05:30:55;18.20;82.20
15099;DHT22;33900;53.640;9.942;2022-08-21T05:33:21;18.40;82.30
15099;DHT22;33900;53.640;9.942;2022-08-21T05:35:49;18.30;82.20
15099;DHT22;33900;53.640;9.942;2022-08-21T05:38:14;18.30;82.20
15099;DHT22;33900;53.640;9.942;2022-08-21T05:40:40;18.40;82.20
15099;DHT22;33900;53.640;9.942;2022-08-21T05:43:05;18.40;82.30
15099;DHT22;33900;53.640;9.942;2022-08-21T05:45:37;18.50;82.40
15099;DHT22;33900;53.640;9.942;2022-08-21T05:48:21;18.50;82.40
15099;DHT22;33900;53.640;9.942;2022-08-21T05:50:48;18.60;82.40
15099;DHT22;33900;53.640;9.942;2022-08-21T05:53:21;18.60;82.40
15099;DHT22;33900;53.640;9.942;2022-08-21T05:55:47;18.70;82.50
15099;DHT22;33900;53.640;9.942;2022-08-21T05:58:14;18.70;82.50
15099;DHT22;33900;53.640;9.942;2022-08-21T06:00:40;18.80;82.50
15099;DHT22;33900;53.640;9.942;2022-08-21T06:03:10;18.90;82.60
15099;DHT22;33900;53.640;9.942;2022-08-21T06:05:35;19.00;82.50
15099;DHT22;33900;53.640;9.942;2022-08-21T06:08:01;19.00;82.40
15099;DHT22;33900;53.640;9.942;2022-08-21T06:10:27;19.10;82.30
15099;DHT22;33900;53.640;9.942;2022-08-21T06:12:53;19.20;82.20
15099;DHT22;33900;53.640;9.942;2022-08-21T06:15:19;19.30;82.40
15099;DHT22;33900;53.640;9.942;2022-08-21T06:17:51;19.30;82.30
15099;DHT22;33900;53.640;9.942;2022-08-21T06:20:17;19.40;82.30
15099;DHT22;33900;53.640;9.942;2022-08-21T06:22:43;19.50;82.10
15099;DHT22;33900;53.640;9.942;2022-08-21T06:25:08;19.60;82.10
15099;DHT22;33900;53.640;9.942;2022-08-21T06:27:34;19.60;82.00
15099;DHT22;33900;53.640;9.942;2022-08-21T06:30:00;19.70;82.70
15099;DHT22;33900;53.640;9.942;2022-08-21T06:32:25;19.70;81.80
15099;DHT22;33900;53.640;9.942;2022-08-21T06:34:51;19.80;82.00
15099;DHT22;33900;53.640;9.942;2022-08-21T06:37:16;19.80;81.80
15099;DHT22;33900;53.640;9.942;2022-08-21T06:39:42;19.90;81.80
15099;DHT22;33900;53.640;9.942;2022-08-21T06:42:12;19.90;81.70
15099;DHT22;33900;53.640;9.942;2022-08-21T06:44:43;20.00;81.70
15099;DHT22;33900;53.640;9.942;2022-08-21T06:47:09;20.00;82.30
15099;DHT22;33900;53.640;9.942;2022-08-21T06:49:50;20.10;81.60
15099;DHT22;33900;53.640;9.942;2022-08-21T06:52:18;20.10;81.50
15099;DHT22;33900;53.640;9.942;2022-08-21T06:54:44;20.20;81.40
15099;DHT22;33900;53.640;9.942;2022-08-21T06:57:09;20.20;81.20
15099;DHT22;33900;53.640;9.942;2022-08-21T06:59:35;20.30;81.10
15099;DHT22;33900;53.640;9.942;2022-08-21T07:02:00;20.40;81.00
15099;DHT22;33900;53.640;9.942;2022-08-21T07:04:26;20.50;80.90
15099;DHT22;33900;53.640;9.942;2022-08-21T07:07:04;20.50;80.60
15099;DHT22;33900;53.640;9.942;2022-08-21T07:09:30;20.60;80.50
15099;DHT22;33900;53.640;9.942;2022-08-21T07:11:56;20.60;80.10
15099;DHT22;33900;53.640;9.942;2022-08-21T07:14:21;20.70;79.90
15099;DHT22;33900;53.640;9.942;2022-08-21T07:16:47;20.80;79.80
15099;DHT22;33900;53.640;9.942;2022-08-21T07:19:13;20.80;79.40
15099;DHT22;33900;53.640;9.942;2022-08-21T07:21:38;21.00;79.30
15099;DHT22;33900;53.640;9.942;2022-08-21T07:24:04;20.80;78.70
15099;DHT22;33900;53.640;9.942;2022-08-21T07:26:29;21.00;78.60
15099;DHT22;33900;53.640;9.942;2022-08-21T07:29:13;21.10;78.00
15099;DHT22;33900;53.640;9.942;2022-08-21T07:44:22;21.60;76.20
15099;DHT22;33900;53.640;9.942;2022-08-21T07:46:47;21.80;75.50
15099;DHT22;33900;53.640;9.942;2022-08-21T07:49:13;21.90;75.50
15099;DHT22;33900;53.640;9.942;2022-08-21T07:51:38;21.90;75.40
15099;DHT22;33900;53.640;9.942;2022-08-21T07:54:04;22.00;75.10
15099;DHT22;33900;53.640;9.942;2022-08-21T07:56:30;22.10;74.60
15099;DHT22;33900;53.640;9.942;2022-08-21T07:58:56;22.20;74.30
15099;DHT22;33900;53.640;9.942;2022-08-21T08:01:23;22.20;74.20
15099;DHT22;33900;53.640;9.942;2022-08-21T08:03:48;22.40;74.00
15099;DHT22;33900;53.640;9.942;2022-08-21T08:06:14;22.40;74.00
15099;DHT22;33900;53.640;9.942;2022-08-21T08:08:42;22.40;74.30
15099;DHT22;33900;53.640;9.942;2022-08-21T08:11:08;22.60;73.70
15099;DHT22;33900;53.640;9.942;2022-08-21T08:13:39;22.70;73.50
15099;DHT22;33900;53.640;9.942;2022-08-21T08:16:04;22.80;72.80
15099;DHT22;33900;53.640;9.942;2022-08-21T08:18:35;22.80;72.40
15099;DHT22;33900;53.640;9.942;2022-08-21T08:21:01;22.90;72.90
15099;DHT22;33900;53.640;9.942;2022-08-21T08:23:27;23.00;73.90
15099;DHT22;33900;53.640;9.942;2022-08-21T08:25:52;23.10;74.20
15099;DHT22;33900;53.640;9.942;2022-08-21T08:28:18;23.10;74.40
15099;DHT22;33900;53.640;9.942;2022-08-21T08:30:44;23.20;74.50
15099;DHT22;33900;53.640;9.942;2022-08-21T08:36:16;23.40;73.50
15099;DHT22;33900;53.640;9.942;2022-08-21T08:42:49;23.90;72.90
15099;DHT22;33900;53.640;9.942;2022-08-21T08:45:17;24.20;72.20
15099;DHT22;33900;53.640;9.942;2022-08-21T08:47:44;24.40;72.00
15099;DHT22;33900;53.640;9.942;2022-08-21T08:50:14;24.70;70.70
15099;DHT22;33900;53.640;9.942;2022-08-21T08:52:43;24.90;70.30
15099;DHT22;33900;53.640;9.942;2022-08-21T08:55:17;25.10;68.20
15099;DHT22;33900;53.640;9.942;2022-08-21T08:57:46;25.40;68.20
15099;DHT22;33900;53.640;9.942;2022-08-21T09:00:13;25.70;68.20
15099;DHT22;33900;53.640;9.942;2022-08-21T09:02:40;25.90;66.50
15099;DHT22;33900;53.640;9.942;2022-08-21T09:05:06;26.00;64.40
15099;DHT22;33900;53.640;9.942;2022-08-21T09:10:05;26.40;63.00
15099;DHT22;33900;53.640;9.942;2022-08-21T09:28:36;25.90;61.70
15099;DHT22;33900;53.640;9.942;2022-08-21T09:31:14;25.80;62.20
15099;DHT22;33900;53.640;9.942;2022-08-21T09:33:41;25.60;62.00
15099;DHT22;33900;53.640;9.942;2022-08-21T09:36:06;25.50;61.80
15099;DHT22;33900;53.640;9.942;2022-08-21T09:38:34;25.40;61.90
15099;DHT22;33900;53.640;9.942;2022-08-21T09:41:04;25.30;61.60
15099;DHT22;33900;53.640;9.942;2022-08-21T09:43:30;25.20;62.00
15099;DHT22;33900;53.640;9.942;2022-08-21T09:46:07;25.10;62.60
15099;DHT22;33900;53.640;9.942;2022-08-21T09:48:49;25.10;62.90
15099;DHT22;33900;53.640;9.942;2022-08-21T09:51:17;24.90;63.00
15099;DHT22;33900;53.640;9.942;2022-08-21T09:53:44;24.90;63.30
15099;DHT22;33900;53.640;9.942;2022-08-21T09:56:27;24.80;63.40
15099;DHT22;33900;53.640;9.942;2022-08-21T09:59:14;24.80;63.50
15099;DHT22;33900;53.640;9.942;2022-08-21T10:04:31;24.70;62.90
15099;DHT22;33900;53.640;9.942;2022-08-21T10:07:07;24.70;63.00
15099;DHT22;33900;53.640;9.942;2022-08-21T10:09:33;24.60;61.90
15099;DHT22;33900;53.640;9.942;2022-08-21T10:12:00;24.50;61.50
15099;DHT22;33900;53.640;9.942;2022-08-21T10:17:00;24.30;61.90
15099;DHT22;33900;53.640;9.942;2022-08-21T10:27:35;24.10;62.80
15099;DHT22;33900;53.640;9.942;2022-08-21T10:30:05;24.10;63.10
15099;DHT22;33900;53.640;9.942;2022-08-21T10:40:40;24.10;63.40
15099;DHT22;33900;53.640;9.942;2022-08-21T10:43:16;24.10;63.70
15099;DHT22;33900;53.640;9.942;2022-08-21T10:48:39;24.10;62.60
15099;DHT22;33900;53.640;9.942;2022-08-21T10:51:10;24.10;62.30
15099;DHT22;33900;53.640;9.942;2022-08-21T10:56:17;24.00;63.10
15099;DHT22;33900;53.640;9.942;2022-08-21T10:58:45;24.10;63.60
15099;DHT22;33900;53.640;9.942;2022-08-21T11:01:17;24.10;63.40
15099;DHT22;33900;53.640;9.942;2022-08-21T11:07:31;24.10;63.20
15099;DHT22;33900;53.640;9.942;2022-08-21T11:09:58;24.10;63.00
15099;DHT22;33900;53.640;9.942;2022-08-21T11:12:32;24.20;62.70
15099;DHT22;33900;53.640;9.942;2022-08-21T11:15:05;24.20;62.50
15099;DHT22;33900;53.640;9.942;2022-08-21T11:17:39;24.20;62.50
15099;DHT22;33900;53.640;9.942;2022-08-21T11:27:54;24.50;59.80
15099;DHT22;33900;53.640;9.942;2022-08-21T11:30:18;24.60;60.50
15099;DHT22;33900;53.640;9.942;2022-08-21T11:40:52;24.80;58.40
15099;DHT22;33900;53.640;9.942;2022-08-21T11:46:08;25.00;56.70
15099;DHT22;33900;53.640;9.942;2022-08-21T11:48:40;25.10;57.10
15099;DHT22;33900;53.640;9.942;2022-08-21T11:51:12;25.10;57.30
15099;DHT22;33900;53.640;9.942;2022-08-21T11:54:01;25.20;56.70
15099;DHT22;33900;53.640;9.942;2022-08-21T11:56:48;25.20;56.70
15099;DHT22;33900;53.640;9.942;2022-08-21T11:59:20;25.40;55.70
15099;DHT22;33900;53.640;9.942;2022-08-21T12:01:48;25.60;56.30
15099;DHT22;33900;53.640;9.942;2022-08-21T12:04:27;25.90;56.50
15099;DHT22;33900;53.640;9.942;2022-08-21T12:06:53;26.20;56.60
15099;DHT22;33900;53.640;9.942;2022-08-21T12:12:00;26.80;55.60
15099;DHT22;33900;53.640;9.942;2022-08-21T12:14:36;27.10;54.80
15099;DHT22;33900;53.640;9.942;2022-08-21T12:17:06;27.30;53.10
15099;DHT22;33900;53.640;9.942;2022-08-21T12:19:31;27.50;53.50
15099;DHT22;33900;53.640;9.942;2022-08-21T12:29:38;27.60;51.00
15099;DHT22;33900;53.640;9.942;2022-08-21T12:34:36;27.50;51.10
15099;DHT22;33900;53.640;9.942;2022-08-21T12:41:25;27.60;51.40
15099;DHT22;33900;53.640;9.942;2022-08-21T12:44:01;27.70;50.70
15099;DHT22;33900;53.640;9.942;2022-08-21T12:46:32;27.70;51.30
15099;DHT22;33900;53.640;9.942;2022-08-21T12:49:01;27.70;50.90
15099;DHT22;33900;53.640;9.942;2022-08-21T12:51:48;27.90;50.00
15099;DHT22;33900;53.640;9.942;2022-08-21T12:54:24;28.00;49.40
15099;DHT22;33900;53.640;9.942;2022-08-21T12:56:56;28.00;48.90
15099;DHT22;33900;53.640;9.942;2022-08-21T12:59:22;28.10;49.00
15099;DHT22;33900;53.640;9.942;2022-08-21T13:01:48;28.20;47.90
15099;DHT22;33900;53.640;9.942;2022-08-21T13:04:18;28.20;47.00
15099;DHT22;33900;53.640;9.942;2022-08-21T13:06:46;28.10;47.10
15099;DHT22;33900;53.640;9.942;2022-08-21T13:09:14;28.10;46.90
15099;DHT22;33900;53.640;9.942;2022-08-21T13:11:41;28.00;46.40
15099;DHT22;33900;53.640;9.942;2022-08-21T13:14:13;27.90;46.00
15099;DHT22;33900;53.640;9.942;2022-08-21T13:16:40;27.80;47.10
15099;DHT22;33900;53.640;9.942;2022-08-21T13:19:06;27.90;47.10
15099;DHT22;33900;53.640;9.942;2022-08-21T13:21:38;27.90;46.80
15099;DHT22;33900;53.640;9.942;2022-08-21T13:24:14;28.00;46.90
15099;DHT22;33900;53.640;9.942;2022-08-21T13:26:40;28.10;46.80
15099;DHT22;33900;53.640;9.942;2022-08-21T13:29:09;28.20;46.20
15099;DHT22;33900;53.640;9.942;2022-08-21T13:31:37;28.20;46.20
15099;DHT22;33900;53.640;9.942;2022-08-21T13:34:03;28.20;45.30
15099;DHT22;33900;53.640;9.942;2022-08-21T13:36:29;28.30;45.40
15099;DHT22;33900;53.640;9.942;2022-08-21T13:38:56;28.20;44.50
15099;DHT22;33900;53.640;9.942;2022-08-21T13:41:24;28.30;44.30
15099;DHT22;33900;53.640;9.942;2022-08-21T13:44:39;28.40;44.00
15099;DHT22;33900;53.640;9.942;2022-08-21T13:46:36;28.40;44.50
15099;DHT22;33900;53.640;9.942;2022-08-21T13:49:03;28.50;45.10
15099;DHT22;33900;53.640;9.942;2022-08-21T13:51:30;28.60;44.30
15099;DHT22;33900;53.640;9.942;2022-08-21T13:53:56;28.80;44.70
15099;DHT22;33900;53.640;9.942;2022-08-21T13:56:27;28.80;44.30
15099;DHT22;33900;53.640;9.942;2022-08-21T13:58:54;28.90;44.10
15099;DHT22;33900;53.640;9.942;2022-08-21T14:01:25;28.90;44.30
15099;DHT22;33900;53.640;9.942;2022-08-21T14:03:53;29.00;43.50
15099;DHT22;33900;53.640;9.942;2022-08-21T14:06:23;29.00;43.90
15099;DHT22;33900;53.640;9.942;2022-08-21T14:08:59;29.10;43.70
15099;DHT22;33900;53.640;9.942;2022-08-21T14:11:25;29.10;44.00
15099;DHT22;33900;53.640;9.942;2022-08-21T14:13:58;29.20;44.10
15099;DHT22;33900;53.640;9.942;2022-08-21T14:16:25;29.20;43.10
15099;DHT22;33900;53.640;9.942;2022-08-21T14:18:53;29.30;42.70
15099;DHT22;33900;53.640;9.942;2022-08-21T14:21:30;29.30;42.20
15099;DHT22;33900;53.640;9.942;2022-08-21T14:24:10;29.40;41.80
15099;DHT22;33900;53.640;9.942;2022-08-21T14:26:42;29.40;42.10
15099;DHT22;33900;53.640;9.942;2022-08-21T14:29:09;29.40;42.20
15099;DHT22;33900;53.640;9.942;2022-08-21T14:31:35;29.40;42.20
15099;DHT22;33900;53.640;9.942;2022-08-21T14:34:01;29.50;42.40
15099;DHT22;33900;53.640;9.942;2022-08-21T14:36:26;29.50;41.80
15099;DHT22;33900;53.640;9.942;2022-08-21T14:38:52;29.50;41.60
15099;DHT22;33900;53.640;9.942;2022-08-21T14:41:20;29.50;41.20
15099;DHT22;33900;53.640;9.942;2022-08-21T14:43:50;29.50;41.70
15099;DHT22;33900;53.640;9.942;2022-08-21T14:46:24;29.60;42.10
15099;DHT22;33900;53.640;9.942;2022-08-21T14:48:50;29.60;42.30
15099;DHT22;33900;53.640;9.942;2022-08-21T14:51:16;29.60;42.90
15099;DHT22;33900;53.640;9.942;2022-08-21T14:53:41;29.70;42.50
15099;DHT22;33900;53.640;9.942;2022-08-21T14:56:10;29.70;42.70
15099;DHT22;33900;53.640;9.942;2022-08-21T14:58:37;29.80;42.50
15099;DHT22;33900;53.640;9.942;2022-08-21T15:01:04;29.70;41.80
15099;DHT22;33900;53.640;9.942;2022-08-21T15:03:30;29.60;42.10
15099;DHT22;33900;53.640;9.942;2022-08-21T15:05:56;29.60;42.60
15099;DHT22;33900;53.640;9.942;2022-08-21T15:08:21;29.60;42.60
15099;DHT22;33900;53.640;9.942;2022-08-21T15:10:47;29.50;42.50
15099;DHT22;33900;53.640;9.942;2022-08-21T15:13:13;29.50;42.30
15099;DHT22;33900;53.640;9.942;2022-08-21T15:15:39;29.40;42.10
15099;DHT22;33900;53.640;9.942;2022-08-21T15:18:05;29.20;41.90
15099;DHT22;33900;53.640;9.942;2022-08-21T15:20:31;29.10;41.80
15099;DHT22;33900;53.640;9.942;2022-08-21T15:22:57;29.00;42.10
15099;DHT22;33900;53.640;9.942;2022-08-21T15:25:22;28.90;42.60
15099;DHT22;33900;53.640;9.942;2022-08-21T15:27:48;28.70;42.80
15099;DHT22;33900;53.640;9.942;2022-08-21T15:30:14;28.60;43.00
15099;DHT22;33900;53.640;9.942;2022-08-21T15:32:39;28.50;43.20
15099;DHT22;33900;53.640;9.942;2022-08-21T15:35:07;28.40;43.30
15099;DHT22;33900;53.640;9.942;2022-08-21T15:37:35;28.30;43.50
15099;DHT22;33900;53.640;9.942;2022-08-21T15:40:01;28.20;43.30
15099;DHT22;33900;53.640;9.942;2022-08-21T15:42:26;28.10;43.60
15099;DHT22;33900;53.640;9.942;2022-08-21T15:44:52;28.10;43.80
15099;DHT22;33900;53.640;9.942;2022-08-21T15:47:21;28.10;44.30
15099;DHT22;33900;53.640;9.942;2022-08-21T15:49:46;28.10;44.50
15099;DHT22;33900;53.640;9.942;2022-08-21T15:52:13;28.20;44.60
15099;DHT22;33900;53.640;9.942;2022-08-21T15:54:39;28.30;43.70
15099;DHT22;33900;53.640;9.942;2022-08-21T15:57:05;28.30;42.90
15099;DHT22;33900;53.640;9.942;2022-08-21T15:59:31;28.30;42.90
15099;DHT22;33900;53.640;9.942;2022-08-21T16:01:57;28.40;42.40
15099;DHT22;33900;53.640;9.942;2022-08-21T16:04:24;28.40;42.60
15099;DHT22;33900;53.640;9.942;2022-08-21T16:06:51;28.40;42.70
15099;DHT22;33900;53.640;9.942;2022-08-21T16:09:17;28.30;42.80
15099;DHT22;33900;53.640;9.942;2022-08-21T16:11:42;28.30;43.10
15099;DHT22;33900;53.640;9.942;2022-08-21T16:14:08;28.40;43.40
15099;DHT22;33900;53.640;9.942;2022-08-21T16:16:35;28.30;43.20
15099;DHT22;33900;53.640;9.942;2022-08-21T16:19:02;28.30;43.50
15099;DHT22;33900;53.640;9.942;2022-08-21T16:21:28;28.30;43.50
15099;DHT22;33900;53.640;9.942;2022-08-21T16:23:53;28.20;43.20
15099;DHT22;33900;53.640;9.942;2022-08-21T16:26:19;28.10;43.10
15099;DHT22;33900;53.640;9.942;2022-08-21T16:28:45;28.10;43.10
15099;DHT22;33900;53.640;9.942;2022-08-21T16:31:11;28.00;43.30
15099;DHT22;33900;53.640;9.942;2022-08-21T16:33:41;28.00;43.00
15099;DHT22;33900;53.640;9.942;2022-08-21T16:36:07;27.90;42.90
15099;DHT22;33900;53.640;9.942;2022-08-21T16:38:33;27.80;43.40
15099;DHT22;33900;53.640;9.942;2022-08-21T16:41:01;27.80;43.80
15099;DHT22;33900;53.640;9.942;2022-08-21T16:43:27;27.80;44.00
15099;DHT22;33900;53.640;9.942;2022-08-21T16:45:53;27.70;43.90
15099;DHT22;33900;53.640;9.942;2022-08-21T16:48:19;27.60;44.00
15099;DHT22;33900;53.640;9.942;2022-08-21T16:50:45;27.60;44.10
15099;DHT22;33900;53.640;9.942;2022-08-21T16:53:10;27.60;44.40
15099;DHT22;33900;53.640;9.942;2022-08-21T16:55:36;27.50;44.50
15099;DHT22;33900;53.640;9.942;2022-08-21T16:58:03;27.40;44.70
15099;DHT22;33900;53.640;9.942;2022-08-21T17:00:33;27.40;44.80
15099;DHT22;33900;53.640;9.942;2022-08-21T17:02:59;27.30;44.80
15099;DHT22;33900;53.640;9.942;2022-08-21T17:05:25;27.30;45.20
15099;DHT22;33900;53.640;9.942;2022-08-21T17:07:50;27.20;45.40
15099;DHT22;33900;53.640;9.942;2022-08-21T17:10:16;27.20;45.70
15099;DHT22;33900;53.640;9.942;2022-08-21T17:12:43;27.10;45.80
15099;DHT22;33900;53.640;9.942;2022-08-21T17:15:13;27.10;46.00
15099;DHT22;33900;53.640;9.942;2022-08-21T17:17:39;27.00;46.30
15099;DHT22;33900;53.640;9.942;2022-08-21T17:20:05;27.00;46.60
15099;DHT22;33900;53.640;9.942;2022-08-21T17:22:31;26.90;46.80